Time,TemperatureF,DewpointF,PressureIn,WindDirection,WindDirectionDegrees,WindSpeedMPH,WindSpeedGustMPH,Humidity,HourlyPrecipIn,Conditions,Clouds,dailyrainin,SoftwareType,DateUTC
2013-04-28 00:15:00,53.9,48.0,30.04,SE,132,0.0,-999.0,80,-99.99,,,0.00,weatherlink.com 1.10,2013-04-28 07:15:00,
2013-04-28 00:30:00,53.5,47.0,30.04,SE,132,0.0,-999.0,79,-99.99,,,0.00,weatherlink.com 1.10,2013-04-28 07:30:00,
2013-04-28 00:45:00,52.9,47.0,30.04,SE,132,0.0,-999.0,80,-99.99,,,0.00,weatherlink.com 1.10,2013-04-28 07:45:00,
2013-04-28 01:00:00,52.3,47.0,30.04,SE,132,0.0,-999.0,81,-99.99,,,0.00,weatherlink.com 1.10,2013-04-28 08:00:00,
2013-04-28 01:15:00,51.4,46.0,30.03,SE,132,0.0,-999.0,83,-99.99,,,0.00,weatherlink.com 1.10,2013-04-28 08:15:00,
2013-04-28 01:30:00,50.7,46.0,30.03,SE,132,0.0,-999.0,84,-99.99,,,0.00,weatherlink.com 1.10,2013-04-28 08:30:00,
2013-04-28 01:45:00,50.2,46.0,30.03,SE,132,0.0,-999.0,85,-99.99,,,0.00,weatherlink.com 1.10,2013-04-28 08:45:00,
2013-04-28 02:00:00,49.9,46.0,30.03,SE,132,0.0,-999.0,85,-99.99,,,0.00,weatherlink.com 1.10,2013-04-28 09:00:00,
2013-04-28 02:15:00,49.6,46.0,30.03,SE,132,0.0,-999.0,86,-99.99,,,0.00,weatherlink.com 1.10,2013-04-28 09:15:00,
2013-04-28 02:30:00,49.1,45.0,30.03,SE,132,0.0,-999.0,86,-99.99,,,0.00,weatherlink.com 1.10,2013-04-28 09:30:00,
2013-04-28 02:45:00,48.5,45.0,30.02,SE,132,0.0,-999.0,87,-99.99,,,0.00,weatherlink.com 1.10,2013-04-28 09:45:00,
2013-04-28 03:00:00,48.2,45.0,30.02,SE,132,0.0,-999.0,88,-99.99,,,0.00,weatherlink.com 1.10,2013-04-28 10:00:00,
2013-04-28 03:15:00,48.0,45.0,30.02,SE,132,0.0,-999.0,88,-99.99,,,0.00,weatherlink.com 1.10,2013-04-28 10:15:00,
2013-04-28 03:30:00,47.7,45.0,30.02,SE,132,0.0,-999.0,89,-99.99,,,0.00,weatherlink.com 1.10,2013-04-28 10:30:00,
2013-04-28 03:45:00,47.4,44.0,30.00,SE,132,0.0,-999.0,89,-99.99,,,0.00,weatherlink.com 1.10,2013-04-28 10:45:00,
2013-04-28 04:00:00,47.3,44.0,30.01,SE,132,0.0,-999.0,89,-99.99,,,0.00,weatherlink.com 1.10,2013-04-28 11:00:00,
2013-04-28 04:15:00,47.0,44.0,30.00,SE,132,0.0,-999.0,89,-99.99,,,0.00,weatherlink.com 1.10,2013-04-28 11:15:00,
2013-04-28 04:30:00,46.8,44.0,30.00,SE,132,0.0,-999.0,90,-99.99,,,0.00,weatherlink.com 1.10,2013-04-28 11:30:00,
2013-04-28 04:45:00,46.4,44.0,30.00,SE,132,0.0,-999.0,90,-99.99,,,0.00,weatherlink.com 1.10,2013-04-28 11:45:00,
2013-04-28 05:00:00,46.1,43.0,30.00,SE,132,0.0,-999.0,90,-99.99,,,0.00,weatherlink.com 1.10,2013-04-28 12:00:00,
2013-04-28 05:15:00,46.0,43.0,30.00,SE,132,0.0,-999.0,90,-99.99,,,0.00,weatherlink.com 1.10,2013-04-28 12:15:00,
2013-04-28 05:30:00,45.8,43.0,30.00,SE,132,0.0,-999.0,90,-99.99,,,0.00,weatherlink.com 1.10,2013-04-28 12:30:00,
2013-04-28 05:45:00,45.7,43.0,30.00,SE,132,0.0,-999.0,90,-99.99,,,0.00,weatherlink.com 1.10,2013-04-28 12:45:00,
2013-04-28 06:00:00,45.5,43.0,30.00,SE,132,0.0,-999.0,90,-99.99,,,0.00,weatherlink.com 1.10,2013-04-28 13:00:00,
2013-04-28 06:15:00,45.4,43.0,30.01,SSE,150,0.0,-999.0,90,-99.99,,,0.00,weatherlink.com 1.10,2013-04-28 13:15:00,
2013-04-28 06:30:00,45.2,43.0,30.01,SSE,150,0.0,-999.0,91,-99.99,,,0.00,weatherlink.com 1.10,2013-04-28 13:30:00,
2013-04-28 06:45:00,45.2,43.0,30.00,NNE,29,0.0,-999.0,91,-99.99,,,0.00,weatherlink.com 1.10,2013-04-28 13:45:00,
2013-04-28 07:00:00,45.5,43.0,30.01,NNE,29,0.0,-999.0,92,-99.99,,,0.00,weatherlink.com 1.10,2013-04-28 14:00:00,
2013-04-28 07:15:00,46.2,44.0,30.02,WSW,242,0.0,-999.0,93,-99.99,,,0.00,weatherlink.com 1.10,2013-04-28 14:15:00,
2013-04-28 07:30:00,47.3,45.0,30.02,ENE,70,0.0,-999.0,93,-99.99,,,0.00,weatherlink.com 1.10,2013-04-28 14:30:00,
2013-04-28 07:45:00,48.6,47.0,30.02,SE,128,0.0,-999.0,93,-99.99,,,0.00,weatherlink.com 1.10,2013-04-28 14:45:00,
2013-04-28 08:00:00,49.5,48.0,30.02,WSW,249,0.0,-999.0,93,-99.99,,,0.00,weatherlink.com 1.10,2013-04-28 15:00:00,
2013-04-28 08:15:00,50.7,49.0,30.02,SW,219,0.0,-999.0,93,-99.99,,,0.00,weatherlink.com 1.10,2013-04-28 15:15:00,
2013-04-28 08:30:00,52.3,50.0,30.02,SW,218,0.0,-999.0,92,-99.99,,,0.00,weatherlink.com 1.10,2013-04-28 15:30:00,
2013-04-28 08:45:00,53.8,50.0,30.02,South,169,1.0,-999.0,86,-99.99,,,0.00,weatherlink.com 1.10,2013-04-28 15:45:00,
2013-04-28 09:01:00,55.4,50.0,30.02,South,178,0.0,-999.0,81,-99.99,,,0.00,weatherlink.com 1.10,2013-04-28 16:01:00,
2013-04-28 09:15:00,57.0,50.0,30.02,SSE,150,0.0,-999.0,76,-99.99,,,0.00,weatherlink.com 1.10,2013-04-28 16:15:00,
2013-04-28 09:30:00,58.7,50.0,30.01,ESE,105,0.0,-999.0,73,-99.99,,,0.00,weatherlink.com 1.10,2013-04-28 16:30:00,
2013-04-28 09:45:00,60.5,51.0,30.01,SE,146,0.0,-999.0,70,-99.99,,,0.00,weatherlink.com 1.10,2013-04-28 16:45:00,
2013-04-28 10:01:00,62.4,51.0,30.00,SE,134,0.0,-999.0,66,-99.99,,,0.00,weatherlink.com 1.10,2013-04-28 17:01:00,
2013-04-28 10:15:00,64.2,52.0,30.00,SE,130,3.0,-999.0,64,-99.99,,,0.00,weatherlink.com 1.10,2013-04-28 17:15:00,
2013-04-28 10:31:00,66.3,52.0,30.00,SE,142,0.0,-999.0,61,-99.99,,,0.00,weatherlink.com 1.10,2013-04-28 17:31:00,
2013-04-28 10:46:00,67.8,53.0,30.00,SE,143,2.0,-999.0,59,-99.99,,,0.00,weatherlink.com 1.10,2013-04-28 17:46:00,
2013-04-28 11:01:00,69.6,54.0,29.99,East,86,5.0,-999.0,57,-99.99,,,0.00,weatherlink.com 1.10,2013-04-28 18:01:00,
2013-04-28 11:16:00,70.9,53.0,29.99,SSE,157,3.0,-999.0,54,-99.99,,,0.00,weatherlink.com 1.10,2013-04-28 18:16:00,
2013-04-28 11:31:00,72.1,54.0,29.99,SSE,147,2.0,-999.0,53,-99.99,,,0.00,weatherlink.com 1.10,2013-04-28 18:31:00,
2013-04-28 11:46:00,74.2,54.0,29.99,SSE,155,3.0,-999.0,50,-99.99,,,0.00,weatherlink.com 1.10,2013-04-28 18:46:00,
2013-04-28 12:01:00,75.8,54.0,29.98,SE,145,0.0,-999.0,47,-99.99,,,0.00,weatherlink.com 1.10,2013-04-28 19:01:00,
2013-04-28 12:16:00,77.0,53.0,29.98,South,172,0.0,-999.0,44,-99.99,,,0.00,weatherlink.com 1.10,2013-04-28 19:16:00,
2013-04-28 12:31:00,78.5,55.0,29.97,East,96,0.0,-999.0,44,-99.99,,,0.00,weatherlink.com 1.10,2013-04-28 19:31:00,
2013-04-28 12:46:00,80.3,54.0,29.96,SE,142,0.0,-999.0,40,-99.99,,,0.00,weatherlink.com 1.10,2013-04-28 19:46:00,
2013-04-28 13:01:00,82.0,55.0,29.96,SE,132,0.0,-999.0,40,-99.99,,,0.00,weatherlink.com 1.10,2013-04-28 20:01:00,
2013-04-28 13:16:00,82.8,54.0,29.95,SSE,165,1.0,-999.0,37,-99.99,,,0.00,weatherlink.com 1.10,2013-04-28 20:16:00,
2013-04-28 13:31:00,83.8,55.0,29.94,ESE,108,0.0,-999.0,37,-99.99,,,0.00,weatherlink.com 1.10,2013-04-28 20:31:00,
2013-04-28 13:46:00,85.5,55.0,29.94,East,92,3.0,-999.0,35,-99.99,,,0.00,weatherlink.com 1.10,2013-04-28 20:46:00,
2013-04-28 14:01:00,85.9,54.0,29.93,SE,139,0.0,-999.0,34,-99.99,,,0.00,weatherlink.com 1.10,2013-04-28 21:01:00,
2013-04-28 14:16:00,87.2,54.0,29.92,SE,141,3.0,-999.0,32,-99.99,,,0.00,weatherlink.com 1.10,2013-04-28 21:16:00,
2013-04-28 14:31:00,87.6,53.0,29.91,East,90,2.0,-999.0,31,-99.99,,,0.00,weatherlink.com 1.10,2013-04-28 21:31:00,
2013-04-28 14:46:00,87.6,54.0,29.91,ESE,116,0.0,-999.0,32,-99.99,,,0.00,weatherlink.com 1.10,2013-04-28 21:46:00,
2013-04-28 15:01:00,89.0,51.0,29.89,ESE,111,1.0,-999.0,27,-99.99,,,0.00,weatherlink.com 1.10,2013-04-28 22:01:00,
2013-04-28 15:16:00,91.0,47.0,29.89,SE,131,0.0,-999.0,22,-99.99,,,0.00,weatherlink.com 1.10,2013-04-28 22:16:00,
2013-04-28 15:32:00,92.3,51.0,29.88,SSE,153,0.0,-999.0,24,-99.99,,,0.00,weatherlink.com 1.10,2013-04-28 22:32:00,
2013-04-28 15:47:00,91.8,49.0,29.88,NE,55,1.0,-999.0,23,-99.99,,,0.00,weatherlink.com 1.10,2013-04-28 22:47:00,
2013-04-28 16:02:00,92.1,53.0,29.87,NNW,335,0.0,-999.0,26,-99.99,,,0.00,weatherlink.com 1.10,2013-04-28 23:02:00,
2013-04-28 16:17:00,91.6,51.0,29.86,ESE,104,0.0,-999.0,25,-99.99,,,0.00,weatherlink.com 1.10,2013-04-28 23:17:00,
2013-04-28 16:32:00,91.8,54.0,29.86,NW,317,0.0,-999.0,28,-99.99,,,0.00,weatherlink.com 1.10,2013-04-28 23:32:00,
2013-04-28 16:47:00,90.7,54.0,29.86,NW,311,1.0,-999.0,29,-99.99,,,0.00,weatherlink.com 1.10,2013-04-28 23:47:00,
2013-04-28 17:01:00,89.7,52.0,29.86,West,280,0.0,-999.0,28,-99.99,,,0.00,weatherlink.com 1.10,2013-04-29 00:01:00,
2013-04-28 17:16:00,89.0,53.0,29.86,WNW,285,3.0,-999.0,29,-99.99,,,0.00,weatherlink.com 1.10,2013-04-29 00:16:00,
2013-04-28 17:31:00,88.6,52.0,29.85,WNW,284,3.0,-999.0,28,-99.99,,,0.00,weatherlink.com 1.10,2013-04-29 00:31:00,
2013-04-28 17:47:00,88.0,51.0,29.85,West,279,0.0,-999.0,28,-99.99,,,0.00,weatherlink.com 1.10,2013-04-29 00:47:00,
2013-04-28 18:02:00,87.4,50.0,29.85,WNW,284,1.0,-999.0,28,-99.99,,,0.00,weatherlink.com 1.10,2013-04-29 01:02:00,
2013-04-28 18:17:00,86.3,51.0,29.85,WNW,285,4.0,-999.0,30,-99.99,,,0.00,weatherlink.com 1.10,2013-04-29 01:17:00,
2013-04-28 18:32:00,84.9,51.0,29.85,WNW,302,0.0,-999.0,31,-99.99,,,0.00,weatherlink.com 1.10,2013-04-29 01:32:00,
2013-04-28 18:47:00,83.8,51.0,29.85,WNW,302,0.0,-999.0,32,-99.99,,,0.00,weatherlink.com 1.10,2013-04-29 01:47:00,
2013-04-28 19:02:00,82.8,51.0,29.84,NW,318,0.0,-999.0,33,-99.99,,,0.00,weatherlink.com 1.10,2013-04-29 02:02:00,
2013-04-28 19:17:00,82.0,50.0,29.84,NW,319,0.0,-999.0,33,-99.99,,,0.00,weatherlink.com 1.10,2013-04-29 02:17:00,
2013-04-28 19:32:00,81.2,49.0,29.84,NW,323,2.0,-999.0,33,-99.99,,,0.00,weatherlink.com 1.10,2013-04-29 02:32:00,
2013-04-28 19:47:00,80.5,50.0,29.84,NW,322,0.0,-999.0,34,-99.99,,,0.00,weatherlink.com 1.10,2013-04-29 02:47:00,
2013-04-28 20:02:00,79.6,52.0,29.84,NW,323,0.0,-999.0,39,-99.99,,,0.00,weatherlink.com 1.10,2013-04-29 03:02:00,
2013-04-28 20:17:00,77.9,52.0,29.84,NW,323,0.0,-999.0,41,-99.99,,,0.00,weatherlink.com 1.10,2013-04-29 03:17:00,
2013-04-28 20:32:00,75.8,52.0,29.84,NW,323,0.0,-999.0,44,-99.99,,,0.00,weatherlink.com 1.10,2013-04-29 03:32:00,
2013-04-28 20:47:00,74.2,51.0,29.85,NW,323,0.0,-999.0,45,-99.99,,,0.00,weatherlink.com 1.10,2013-04-29 03:47:00,
2013-04-28 21:02:00,72.3,52.0,29.85,NW,323,0.0,-999.0,49,-99.99,,,0.00,weatherlink.com 1.10,2013-04-29 04:02:00,
2013-04-28 21:17:00,70.4,52.0,29.85,NW,323,0.0,-999.0,52,-99.99,,,0.00,weatherlink.com 1.10,2013-04-29 04:17:00,
2013-04-28 21:32:00,69.6,52.0,29.86,NW,323,0.0,-999.0,54,-99.99,,,0.00,weatherlink.com 1.10,2013-04-29 04:32:00,
2013-04-28 21:47:00,68.6,52.0,29.86,NW,323,0.0,-999.0,56,-99.99,,,0.00,weatherlink.com 1.10,2013-04-29 04:47:00,
2013-04-28 22:02:00,67.8,52.0,29.86,NW,323,0.0,-999.0,58,-99.99,,,0.00,weatherlink.com 1.10,2013-04-29 05:02:00,
2013-04-28 22:17:00,66.4,51.0,29.86,NW,323,0.0,-999.0,59,-99.99,,,0.00,weatherlink.com 1.10,2013-04-29 05:17:00,
2013-04-28 22:32:00,65.5,52.0,29.86,NW,323,0.0,-999.0,62,-99.99,,,0.00,weatherlink.com 1.10,2013-04-29 05:32:00,
2013-04-28 22:47:00,64.7,52.0,29.86,NW,323,0.0,-999.0,63,-99.99,,,0.00,weatherlink.com 1.10,2013-04-29 05:47:00,
2013-04-28 23:02:00,63.9,52.0,29.86,NW,323,0.0,-999.0,65,-99.99,,,0.00,weatherlink.com 1.10,2013-04-29 06:02:00,
2013-04-28 23:17:00,63.2,52.0,29.86,NW,323,0.0,-999.0,66,-99.99,,,0.00,weatherlink.com 1.10,2013-04-29 06:17:00,
2013-04-28 23:32:00,62.6,52.0,29.85,NW,323,0.0,-999.0,68,-99.99,,,0.00,weatherlink.com 1.10,2013-04-29 06:32:00,
2013-04-28 23:47:00,62.0,52.0,29.85,NW,323,0.0,-999.0,69,-99.99,,,0.00,weatherlink.com 1.10,2013-04-29 06:47:00,